createdAt,value
2023-02-22T00:00:43.239Z,86.79
2023-02-22T00:03:16.200Z,86.50
2023-02-22T00:05:47.212Z,86.78
2023-02-22T00:08:15.415Z,86.44
2023-02-22T00:10:41.849Z,86.47
2023-02-22T00:13:09.777Z,86.58
2023-02-22T00:15:36.504Z,86.63
2023-02-22T00:18:04.823Z,86.96
2023-02-22T00:20:31.167Z,86.77
2023-02-22T00:22:57.603Z,87.07
2023-02-22T00:25:24.824Z,87.11
2023-02-22T00:27:52.825Z,87.18
2023-02-22T00:30:27.025Z,87.36
2023-02-22T00:32:55.851Z,87.65
2023-02-22T00:35:25.692Z,87.63
2023-02-22T00:37:55.568Z,87.51
2023-02-22T00:40:24.797Z,87.71
2023-02-22T00:42:51.874Z,87.48
2023-02-22T00:45:24.053Z,87.57
2023-02-22T00:47:51.095Z,87.45
2023-02-22T00:50:18.804Z,87.58
2023-02-22T00:52:45.715Z,87.72
2023-02-22T00:55:24.827Z,88.41
2023-02-22T00:57:51.281Z,88.72
2023-02-22T01:00:24.288Z,89.14
2023-02-22T01:02:51.720Z,88.99
2023-02-22T01:05:23.897Z,88.85
2023-02-22T01:07:55.598Z,88.75
2023-02-22T01:10:24.803Z,89.18
2023-02-22T01:12:52.455Z,89.14
2023-02-22T01:15:23.789Z,89.26
2023-02-22T01:17:53.372Z,90.19
2023-02-22T01:20:22.726Z,89.76
2023-02-22T01:22:51.446Z,89.75
2023-02-22T01:25:22.058Z,90.15
2023-02-22T01:27:50.082Z,90.35
2023-02-22T01:30:21.835Z,90.45
2023-02-22T01:32:48.229Z,90.77
2023-02-22T01:35:18.381Z,90.34
2023-02-22T01:37:45.342Z,90.65
2023-02-22T01:40:20.222Z,90.87
2023-02-22T01:42:55.352Z,91.24
2023-02-22T01:45:30.790Z,91.09
2023-02-22T01:48:28.549Z,91.30
2023-02-22T01:51:03.461Z,91.59
2023-02-22T01:53:36.964Z,91.70
2023-02-22T01:56:04.514Z,91.84
2023-02-22T01:58:33.504Z,91.80
2023-02-22T02:01:01.049Z,92.08
2023-02-22T02:03:33.192Z,92.25
2023-02-22T02:06:02.725Z,92.62
2023-02-22T02:08:39.767Z,92.29
2023-02-22T02:11:09.223Z,92.28
2023-02-22T02:13:36.187Z,92.15
2023-02-22T02:16:02.540Z,92.29
2023-02-22T02:18:29.333Z,92.42
2023-02-22T02:21:24.074Z,92.46
2023-02-22T02:23:59.686Z,92.43
2023-02-22T02:27:02.927Z,92.56
2023-02-22T02:29:43.503Z,92.72
2023-02-22T02:32:59.847Z,92.90
2023-02-22T02:35:58.607Z,92.92
2023-02-22T02:38:50.603Z,93.51
2023-02-22T02:41:49.132Z,93.67
2023-02-22T02:44:37.815Z,93.97
2023-02-22T02:47:21.942Z,94.10
2023-02-22T02:49:54.833Z,93.80
2023-02-22T02:52:24.822Z,94.10
2023-02-22T02:54:52.746Z,93.98
2023-02-22T02:57:19.079Z,94.04
2023-02-22T02:59:46.295Z,94.21
2023-02-22T03:02:36.781Z,94.42
2023-02-22T03:05:12.942Z,94.57
2023-02-22T03:08:01.819Z,94.91
2023-02-22T03:10:37.652Z,94.80
2023-02-22T03:13:19.226Z,95.08
2023-02-22T03:16:16.612Z,95.18
2023-02-22T03:18:55.958Z,95.09
2023-02-22T03:21:31.483Z,95.00
2023-02-22T03:24:09.866Z,95.20
2023-02-22T03:26:43.387Z,95.43
2023-02-22T03:29:13.158Z,95.41
2023-02-22T03:31:43.546Z,95.57
2023-02-22T03:34:16.971Z,95.78
2023-02-22T03:36:49.981Z,95.90
2023-02-22T03:39:20.168Z,95.73
2023-02-22T03:41:51.296Z,95.91
2023-02-22T03:44:25.414Z,95.65
2023-02-22T03:46:56.640Z,95.82
2023-02-22T03:49:32.723Z,95.74
2023-02-22T03:52:01.023Z,95.71
2023-02-22T03:54:29.095Z,95.45
2023-02-22T03:57:00.802Z,95.31
2023-02-22T03:59:29.192Z,95.67
2023-02-22T04:01:56.887Z,95.57
2023-02-22T04:04:25.252Z,95.57
2023-02-22T04:06:52.444Z,95.71
2023-02-22T04:09:19.575Z,95.66
2023-02-22T04:11:45.988Z,95.80
2023-02-22T04:14:12.941Z,95.68
2023-02-22T04:16:39.670Z,95.50
2023-02-22T04:19:08.757Z,95.51
2023-02-22T04:21:37.535Z,95.45
2023-02-22T04:24:05.063Z,95.49
2023-02-22T04:26:31.946Z,95.33
2023-02-22T04:29:00.579Z,95.46
2023-02-22T04:31:33.989Z,95.70
2023-02-22T04:34:01.439Z,95.58
2023-02-22T04:36:31.752Z,95.22
2023-02-22T04:39:00.083Z,95.39
2023-02-22T04:41:28.517Z,95.34
2023-02-22T04:43:54.941Z,95.47
2023-02-22T04:46:23.592Z,95.32
2023-02-22T04:48:51.632Z,95.51
2023-02-22T04:51:21.020Z,95.68
2023-02-22T04:53:56.237Z,95.36
2023-02-22T04:56:22.686Z,95.17
2023-02-22T04:58:49.042Z,95.24
2023-02-22T05:01:16.481Z,95.15
2023-02-22T05:03:43.844Z,95.18
2023-02-22T05:06:12.283Z,94.97
2023-02-22T05:08:38.674Z,94.98
2023-02-22T05:11:05.682Z,94.82
2023-02-22T05:13:32.078Z,95.14
2023-02-22T05:15:58.460Z,95.14
2023-02-22T05:18:24.934Z,94.91
2023-02-22T05:20:51.313Z,95.28
2023-02-22T05:23:17.649Z,95.25
2023-02-22T05:25:44.380Z,95.17
2023-02-22T05:28:12.953Z,95.25
2023-02-22T05:30:39.852Z,94.99
2023-02-22T05:33:07.299Z,95.03
2023-02-22T05:35:33.802Z,95.07
2023-02-22T05:38:02.995Z,94.81
2023-02-22T05:40:30.192Z,95.07
2023-02-22T05:42:56.918Z,94.74
2023-02-22T05:45:25.850Z,95.07
2023-02-22T05:47:53.244Z,94.90
2023-02-22T05:50:20.964Z,95.03
2023-02-22T05:52:48.619Z,95.01
2023-02-22T05:55:18.260Z,94.72
2023-02-22T05:57:44.808Z,94.89
2023-02-22T06:00:16.366Z,94.85
2023-02-22T06:02:42.737Z,94.88
2023-02-22T06:05:09.161Z,94.53
2023-02-22T06:07:35.558Z,94.96
2023-02-22T06:10:01.976Z,94.68
2023-02-22T06:12:28.316Z,94.92
2023-02-22T06:14:54.775Z,94.93
2023-02-22T06:17:21.171Z,94.47
2023-02-22T06:19:47.531Z,94.52
2023-02-22T06:22:18.788Z,94.59
2023-02-22T06:24:45.233Z,94.45
2023-02-22T06:27:11.966Z,94.39
2023-02-22T06:29:38.337Z,94.61
2023-02-22T06:32:05.023Z,94.81
2023-02-22T06:34:31.486Z,94.65
2023-02-22T06:36:59.936Z,94.61
2023-02-22T06:39:26.436Z,94.95
2023-02-22T06:41:55.114Z,94.77
2023-02-22T06:44:21.947Z,94.86
2023-02-22T06:46:52.805Z,94.93
2023-02-22T06:49:20.351Z,94.66
2023-02-22T06:51:47.598Z,94.72
2023-02-22T06:54:14.491Z,94.86
2023-02-22T06:56:40.840Z,95.06
2023-02-22T06:59:08.330Z,95.34
2023-02-22T07:01:34.859Z,95.37
2023-02-22T07:04:01.275Z,95.03
2023-02-22T07:06:27.640Z,94.76
2023-02-22T07:08:54.641Z,95.05
2023-02-22T07:11:21.046Z,95.10
2023-02-22T07:13:47.367Z,95.53
2023-02-22T07:16:13.869Z,95.50
2023-02-22T07:18:40.195Z,96.02
2023-02-22T07:21:07.450Z,96.38
2023-02-22T07:23:33.838Z,95.99
2023-02-22T07:26:01.256Z,96.36
2023-02-22T07:28:27.589Z,96.25
2023-02-22T07:30:53.999Z,96.23
2023-02-22T07:33:20.482Z,96.36
2023-02-22T07:35:48.915Z,96.60
2023-02-22T07:38:17.813Z,96.43
2023-02-22T07:40:44.930Z,96.63
2023-02-22T07:43:19.595Z,96.58
2023-02-22T07:45:47.866Z,96.09
2023-02-22T07:48:17.337Z,96.35
2023-02-22T07:50:44.665Z,96.03
2023-02-22T07:53:18.004Z,95.54
2023-02-22T07:55:44.866Z,96.00
2023-02-22T07:58:15.252Z,95.86
2023-02-22T08:00:43.947Z,95.67
2023-02-22T08:03:13.133Z,95.85
2023-02-22T08:05:42.316Z,95.88
2023-02-22T08:08:08.966Z,95.64
2023-02-22T08:10:35.698Z,95.79
2023-02-22T08:13:02.860Z,96.05
2023-02-22T08:15:33.173Z,96.07
2023-02-22T08:18:01.079Z,96.29
2023-02-22T08:20:29.061Z,96.22
2023-02-22T08:22:56.222Z,96.04
2023-02-22T08:25:27.153Z,95.78
2023-02-22T08:27:58.734Z,95.85
2023-02-22T08:30:25.656Z,95.69
2023-02-22T08:32:52.275Z,95.74
2023-02-22T08:35:20.146Z,95.48
2023-02-22T08:37:48.986Z,95.94
2023-02-22T08:40:17.834Z,95.47
2023-02-22T08:42:44.337Z,95.91
2023-02-22T08:45:13.216Z,95.77
2023-02-22T08:47:40.361Z,95.68
2023-02-22T08:50:07.890Z,95.45
2023-02-22T08:52:35.020Z,95.66
2023-02-22T08:55:01.688Z,95.44
2023-02-22T08:57:28.060Z,95.53
2023-02-22T08:59:54.434Z,95.47
2023-02-22T09:02:22.286Z,95.58
2023-02-22T09:04:49.101Z,95.82
2023-02-22T09:07:15.626Z,96.14
2023-02-22T09:09:45.338Z,96.01
2023-02-22T09:12:12.080Z,95.78
2023-02-22T09:14:38.572Z,96.02
2023-02-22T09:17:05.968Z,96.01
2023-02-22T09:19:32.575Z,95.67
2023-02-22T09:22:02.120Z,95.77
2023-02-22T09:24:28.553Z,96.04
2023-02-22T09:26:55.235Z,96.00
2023-02-22T09:29:23.367Z,95.88
2023-02-22T09:31:52.887Z,95.71
2023-02-22T09:34:20.840Z,95.35
2023-02-22T09:36:48.067Z,94.81
2023-02-22T09:39:16.799Z,95.08
2023-02-22T09:42:05.687Z,94.92
2023-02-22T09:44:48.204Z,94.45
2023-02-22T09:47:19.884Z,94.24
2023-02-22T09:50:15.367Z,93.84
2023-02-22T09:53:22.029Z,93.59
2023-02-22T09:55:53.176Z,93.38
2023-02-22T09:58:26.859Z,93.56
2023-02-22T10:01:00.968Z,93.69
2023-02-22T10:03:36.512Z,92.63
2023-02-22T10:06:09.993Z,92.57
2023-02-22T10:08:41.438Z,91.50
2023-02-22T10:11:23.036Z,91.04
2023-02-22T10:13:57.916Z,90.17
2023-02-22T10:16:36.940Z,89.39
2023-02-22T10:19:28.256Z,88.19
2023-02-22T10:22:19.149Z,87.73
2023-02-22T10:24:45.477Z,87.38
2023-02-22T10:27:29.075Z,87.03
2023-02-22T10:30:23.326Z,87.10
2023-02-22T10:32:55.744Z,85.75
2023-02-22T10:35:27.885Z,84.31
2023-02-22T10:38:12.422Z,82.69
2023-02-22T10:40:39.238Z,81.67
2023-02-22T10:43:08.165Z,81.83
2023-02-22T10:45:36.885Z,81.11
2023-02-22T10:48:11.416Z,79.01
2023-02-22T10:50:41.451Z,79.20
2023-02-22T10:53:10.112Z,78.96
2023-02-22T10:55:57.300Z,76.90
2023-02-22T10:58:24.393Z,77.04
2023-02-22T11:00:51.576Z,76.35
2023-02-22T11:03:23.665Z,76.79
2023-02-22T11:05:50.709Z,74.56
2023-02-22T11:08:17.044Z,75.29
2023-02-22T11:10:43.471Z,73.02
2023-02-22T11:13:25.782Z,73.63
2023-02-22T11:15:54.318Z,73.05
2023-02-22T11:18:33.468Z,72.59
2023-02-22T11:21:10.122Z,72.52
2023-02-22T11:23:38.643Z,71.24
2023-02-22T11:26:14.216Z,71.69
2023-02-22T11:28:49.180Z,71.14
2023-02-22T11:31:18.011Z,71.42
2023-02-22T11:36:42.874Z,70.65
2023-02-22T11:39:34.101Z,69.91
2023-02-22T11:42:22.615Z,66.80
2023-02-22T11:44:50.745Z,67.48
2023-02-22T11:47:24.437Z,66.67
2023-02-22T11:49:53.342Z,68.03
2023-02-22T11:52:29.738Z,67.39
2023-02-22T11:55:09.879Z,66.00
2023-02-22T11:57:51.209Z,65.73
2023-02-22T12:00:36.311Z,64.86
2023-02-22T12:03:37.837Z,63.92
2023-02-22T12:06:16.423Z,63.47
2023-02-22T12:09:01.228Z,63.59
2023-02-22T12:12:03.864Z,61.34
2023-02-22T12:14:45.961Z,62.24
2023-02-22T12:17:32.209Z,61.62
2023-02-22T12:20:09.927Z,61.20
2023-02-22T12:22:46.018Z,59.51
2023-02-22T12:25:22.616Z,58.28
2023-02-22T12:27:54.012Z,57.15
2023-02-22T12:30:28.816Z,57.12
2023-02-22T12:32:59.918Z,56.74
2023-02-22T12:35:37.218Z,57.05
2023-02-22T12:38:22.950Z,54.08
2023-02-22T12:41:02.690Z,51.87
2023-02-22T12:43:35.603Z,53.52
2023-02-22T12:46:24.277Z,53.45
2023-02-22T12:49:01.303Z,51.11
2023-02-22T12:51:48.554Z,47.15
2023-02-22T12:54:31.915Z,45.85
2023-02-22T12:57:11.470Z,45.79
2023-02-22T12:59:55.735Z,45.17
2023-02-22T13:02:45.497Z,46.28
2023-02-22T13:05:20.503Z,45.14
2023-02-22T13:07:52.712Z,46.52
2023-02-22T13:10:44.418Z,46.06
2023-02-22T13:13:32.285Z,46.18
2023-02-22T13:16:10.704Z,46.64
2023-02-22T13:18:53.537Z,46.88
2023-02-22T13:21:23.627Z,48.31
2023-02-22T13:24:06.489Z,48.48
2023-02-22T13:26:35.807Z,49.07
2023-02-22T13:29:17.543Z,47.55
2023-02-22T13:31:53.187Z,46.95
2023-02-22T13:34:27.324Z,46.07
2023-02-22T13:37:19.783Z,46.10
2023-02-22T13:40:13.847Z,46.55
2023-02-22T13:43:14.778Z,46.77
2023-02-22T13:45:46.838Z,47.33
2023-02-22T13:48:39.759Z,46.81
2023-02-22T13:51:15.652Z,46.81
2023-02-22T13:53:50.262Z,47.99
2023-02-22T13:56:20.280Z,47.31
2023-02-22T13:58:49.865Z,45.93
2023-02-22T14:01:43.995Z,47.03
2023-02-22T14:04:20.930Z,47.47
2023-02-22T14:06:47.338Z,47.17
2023-02-22T14:09:19.096Z,47.82
2023-02-22T14:11:54.058Z,47.69
2023-02-22T14:14:20.865Z,46.13
2023-02-22T14:17:19.147Z,46.22
2023-02-22T14:20:01.080Z,46.96
2023-02-22T14:22:30.648Z,45.10
2023-02-22T14:24:58.276Z,46.64
2023-02-22T14:27:24.851Z,46.58
2023-02-22T14:29:57.403Z,47.69
2023-02-22T14:32:32.227Z,46.58
2023-02-22T14:35:04.315Z,45.11
2023-02-22T14:37:42.608Z,46.64
2023-02-22T14:40:27.601Z,46.27
2023-02-22T14:43:20.811Z,48.81
2023-02-22T14:45:54.902Z,47.70
2023-02-22T14:48:33.518Z,47.93
2023-02-22T14:51:15.650Z,47.23
2023-02-22T14:53:52.640Z,48.53
2023-02-22T14:56:41.024Z,48.12
2023-02-22T14:59:21.526Z,49.32
2023-02-22T15:02:01.744Z,49.22
2023-02-22T15:04:32.421Z,49.83
2023-02-22T15:07:01.084Z,48.84
2023-02-22T15:09:32.962Z,49.91
2023-02-22T15:12:03.899Z,51.26
2023-02-22T15:14:37.626Z,50.98
2023-02-22T15:17:22.732Z,51.36
2023-02-22T15:19:49.931Z,51.89
2023-02-22T15:22:30.066Z,51.94
2023-02-22T15:25:06.097Z,52.73
2023-02-22T15:27:36.869Z,52.14
2023-02-22T15:30:26.422Z,52.83
2023-02-22T15:33:04.125Z,53.73
2023-02-22T15:35:33.255Z,53.91
2023-02-22T15:38:11.554Z,54.30
2023-02-22T15:40:42.868Z,54.50
2023-02-22T15:43:24.042Z,55.21
2023-02-22T15:45:54.748Z,54.84
2023-02-22T15:48:21.317Z,55.43
2023-02-22T15:51:06.410Z,55.14
2023-02-22T15:53:47.766Z,55.84
2023-02-22T15:56:24.231Z,56.79
2023-02-22T15:58:51.595Z,57.51
2023-02-22T16:01:19.832Z,58.35
2023-02-22T16:03:51.261Z,58.16
2023-02-22T16:06:35.092Z,58.86
2023-02-22T16:09:25.256Z,59.85
2023-02-22T16:12:10.963Z,59.89
2023-02-22T16:14:40.063Z,59.60
2023-02-22T16:17:25.466Z,59.37
2023-02-22T16:19:52.854Z,59.52
2023-02-22T16:22:37.254Z,60.51
2023-02-22T16:25:30.946Z,60.82
2023-02-22T16:28:01.458Z,61.89
2023-02-22T16:30:34.378Z,60.95
2023-02-22T16:33:05.451Z,61.59
2023-02-22T16:35:35.282Z,62.29
2023-02-22T16:38:04.912Z,62.19
2023-02-22T16:40:36.003Z,62.52
2023-02-22T16:43:05.965Z,62.76
2023-02-22T16:45:32.829Z,62.30
2023-02-22T16:48:00.181Z,62.17
2023-02-22T16:50:26.684Z,62.27
2023-02-22T16:52:55.658Z,62.60
2023-02-22T16:55:22.355Z,63.20
2023-02-22T16:57:49.897Z,63.58
2023-02-22T17:00:30.918Z,63.31
2023-02-22T17:03:03.804Z,63.91
2023-02-22T17:05:31.741Z,64.92
2023-02-22T17:07:58.189Z,64.31
2023-02-22T17:10:25.989Z,64.93
2023-02-22T17:12:53.261Z,64.77
2023-02-22T17:15:24.593Z,64.86
2023-02-22T17:17:52.622Z,65.34
2023-02-22T17:20:31.608Z,64.78
2023-02-22T17:23:08.008Z,65.78
2023-02-22T17:25:42.333Z,65.50
2023-02-22T17:28:09.351Z,65.76
2023-02-22T17:30:36.368Z,65.86
2023-02-22T17:33:06.388Z,65.87
2023-02-22T17:35:36.987Z,66.39
2023-02-22T17:38:06.013Z,66.60
2023-02-22T17:40:39.790Z,67.05
2023-02-22T17:43:08.780Z,67.69
2023-02-22T17:45:38.281Z,66.77
2023-02-22T17:48:05.395Z,67.46
2023-02-22T17:50:31.803Z,67.05
2023-02-22T17:53:00.407Z,68.26
2023-02-22T17:55:27.502Z,68.28
2023-02-22T17:57:58.483Z,68.46
2023-02-22T18:00:34.000Z,68.66
2023-02-22T18:03:03.343Z,69.76
2023-02-22T18:05:32.874Z,69.47
2023-02-22T18:08:00.197Z,70.04
2023-02-22T18:10:27.154Z,69.56
2023-02-22T18:12:53.921Z,69.51
2023-02-22T18:15:23.471Z,69.85
2023-02-22T18:17:50.252Z,70.92
2023-02-22T18:20:30.815Z,70.26
2023-02-22T18:22:59.017Z,70.38
2023-02-22T18:25:26.539Z,70.70
2023-02-22T18:27:54.846Z,71.88
2023-02-22T18:30:21.714Z,70.99
2023-02-22T18:32:48.115Z,71.01
2023-02-22T18:35:14.461Z,71.09
2023-02-22T18:37:40.896Z,71.88
2023-02-22T18:40:10.519Z,70.90
2023-02-22T18:42:38.705Z,72.10
2023-02-22T18:45:07.155Z,71.83
2023-02-22T18:47:42.532Z,71.91
2023-02-22T18:50:10.649Z,72.31
2023-02-22T18:52:44.700Z,72.55
2023-02-22T18:55:19.242Z,73.03
2023-02-22T18:57:46.752Z,73.91
2023-02-22T19:00:16.103Z,73.65
2023-02-22T19:02:45.798Z,74.15
2023-02-22T19:05:17.191Z,74.92
2023-02-22T19:07:44.817Z,75.44
2023-02-22T19:10:11.322Z,75.19
2023-02-22T19:12:37.733Z,75.38
2023-02-22T19:15:04.410Z,76.61
2023-02-22T19:17:32.207Z,75.95
2023-02-22T19:19:58.601Z,76.21
2023-02-22T19:22:26.114Z,77.06
2023-02-22T19:24:56.296Z,77.59
2023-02-22T19:27:22.814Z,77.85
2023-02-22T19:29:49.870Z,77.84
2023-02-22T19:32:17.268Z,78.34
2023-02-22T19:34:44.002Z,78.22
2023-02-22T19:37:12.460Z,78.27
2023-02-22T19:39:39.010Z,78.62
2023-02-22T19:42:09.046Z,78.79
2023-02-22T19:44:36.863Z,79.02
2023-02-22T19:47:08.775Z,78.87
2023-02-22T19:49:37.062Z,78.94
2023-02-22T19:52:06.568Z,79.61
2023-02-22T19:54:33.530Z,79.51
2023-02-22T19:57:00.389Z,79.53
2023-02-22T19:59:27.339Z,80.33
2023-02-22T20:01:54.674Z,80.47
2023-02-22T20:04:21.566Z,80.41
2023-02-22T20:06:57.373Z,80.96
2023-02-22T20:09:29.702Z,81.26
2023-02-22T20:11:56.485Z,81.84
2023-02-22T20:14:25.934Z,82.08
2023-02-22T20:16:53.744Z,82.22
2023-02-22T20:19:22.398Z,82.02
2023-02-22T20:21:49.345Z,82.16
2023-02-22T20:24:18.110Z,82.30
2023-02-22T20:26:46.321Z,82.76
2023-02-22T20:29:13.757Z,82.65
2023-02-22T20:31:41.842Z,82.67
2023-02-22T20:34:09.683Z,82.84
2023-02-22T20:36:38.316Z,83.27
2023-02-22T20:39:13.030Z,83.04
2023-02-22T20:41:42.406Z,83.24
2023-02-22T20:44:12.001Z,82.80
2023-02-22T20:46:38.343Z,83.06
2023-02-22T20:49:11.021Z,83.25
2023-02-22T20:51:39.473Z,83.16
2023-02-22T20:54:06.543Z,83.16
2023-02-22T20:56:33.001Z,83.20
2023-02-22T20:59:02.438Z,82.97
2023-02-22T21:01:29.631Z,83.13
2023-02-22T21:04:00.973Z,83.46
2023-02-22T21:06:28.625Z,83.57
2023-02-22T21:08:57.910Z,83.52
2023-02-22T21:11:27.158Z,83.24
2023-02-22T21:13:53.843Z,83.44
2023-02-22T21:16:29.649Z,83.76
2023-02-22T21:18:58.939Z,84.08
2023-02-22T21:21:27.382Z,84.50
2023-02-22T21:23:56.203Z,84.27
2023-02-22T21:26:27.417Z,84.71
2023-02-22T21:28:54.970Z,84.68
2023-02-22T21:31:23.829Z,84.73
2023-02-22T21:33:52.710Z,85.28
2023-02-22T21:36:20.471Z,85.27
2023-02-22T21:38:53.060Z,85.60
2023-02-22T21:41:21.763Z,85.45
2023-02-22T21:43:50.144Z,85.86
2023-02-22T21:46:17.103Z,85.69
2023-02-22T21:48:48.807Z,85.34
2023-02-22T21:51:20.046Z,85.92
2023-02-22T21:53:52.242Z,86.05
2023-02-22T21:56:24.180Z,86.03
2023-02-22T21:58:58.989Z,86.10
2023-02-22T22:01:38.674Z,85.71
2023-02-22T22:04:05.134Z,86.09
2023-02-22T22:06:33.960Z,85.98
2023-02-22T22:09:00.345Z,86.41
2023-02-22T22:11:27.414Z,86.87
2023-02-22T22:13:57.323Z,86.85
2023-02-22T22:16:26.766Z,87.35
2023-02-22T22:18:54.718Z,87.24
2023-02-22T22:21:23.502Z,87.82
2023-02-22T22:23:54.164Z,87.47
2023-02-22T22:26:20.911Z,88.07
2023-02-22T22:28:49.626Z,88.19
2023-02-22T22:31:17.318Z,88.49
2023-02-22T22:33:44.776Z,87.98
2023-02-22T22:36:13.880Z,88.31
2023-02-22T22:38:40.338Z,88.31
2023-02-22T22:41:08.213Z,88.58
2023-02-22T22:43:36.467Z,88.58
2023-02-22T22:46:05.275Z,88.74
2023-02-22T22:48:35.880Z,89.01
2023-02-22T22:51:06.389Z,88.82
2023-02-22T22:53:34.082Z,89.21
2023-02-22T22:56:05.979Z,89.45
2023-02-22T22:58:33.806Z,89.74
2023-02-22T23:01:05.779Z,89.53
2023-02-22T23:03:38.316Z,89.63
2023-02-22T23:06:05.362Z,90.04
2023-02-22T23:08:42.852Z,89.82
2023-02-22T23:11:12.673Z,90.13
2023-02-22T23:13:39.505Z,90.47
2023-02-22T23:16:12.620Z,90.53
2023-02-22T23:18:43.047Z,90.96
2023-02-22T23:21:10.575Z,90.77
2023-02-22T23:23:37.868Z,90.96
2023-02-22T23:26:11.308Z,90.62
2023-02-22T23:28:39.362Z,91.14
2023-02-22T23:31:10.121Z,91.27
2023-02-22T23:33:38.170Z,91.20
2023-02-22T23:36:05.779Z,91.01
2023-02-22T23:38:34.665Z,91.20
2023-02-22T23:41:02.704Z,91.16
2023-02-22T23:43:32.435Z,91.17
2023-02-22T23:46:10.607Z,91.41
2023-02-22T23:48:46.553Z,91.54
2023-02-22T23:51:15.904Z,91.15
2023-02-22T23:53:45.955Z,91.39
2023-02-22T23:56:23.808Z,91.20
2023-02-22T23:58:51.784Z,91.30
